SWR188 LSZH-ZSPD
Flight info
| Callsign | SWR188 |
|---|---|
| Flight time | N/A |
| Altitude | 31000 |
| Route | DEGES Z2 UMVEG DCT DIMLO DCT INVED DCT SOKRU/N0477F330 DCT DINRO DCT UDROS DCT CRM UM11 TBN UN61 GONPU/N0472F350 UN61 NOLGA DCT BARAD M747 LUSAL N701 LARGI B701 KRS A480 OTBOR/K0878F350 N147 PIDWO/K0867F370 N147 GENGA N143 RUDIZ N161 SARIN/K0865S1130 A368 FKG W188 BATUS/K0869S1190 W188 LIKMI W270 DKO W64 NUTLO B208 CGO W129 KAMDA W128 FYG B208 HFE R343 SASAN SAS81A |
| Aircraft | A343/H-SDE2E3FGHIJ4J5LM1OP2RVWXYZ/LB1D1 |
Departure
| Time | 2026-04-26 10:55 |
|---|---|
| Airport | Zürich Airport (LSZH) |
Arrival
| Time | N/A |
|---|---|
| Airport | Shanghai Pudong International Airport (ZSPD) |
| Time | Latitude | Longitude | Altitude | Speed | Heading |
|---|---|---|---|---|---|
| 2026-04-26 10:55 | 47.46319 | 8.68540 | 5084 ft | 198 kts | 87° |
| 2026-04-26 10:55 | 47.46373 | 8.70595 | 5240 ft | 208 kts | 87° |
| 2026-04-26 10:55 | 47.46431 | 8.72810 | 5379 ft | 224 kts | 87° |
| 2026-04-26 10:56 | 47.46496 | 8.75184 | 5506 ft | 237 kts | 87° |
| 2026-04-26 10:56 | 47.46566 | 8.77679 | 5760 ft | 248 kts | 87° |
| 2026-04-26 10:56 | 47.46657 | 8.80281 | 5945 ft | 259 kts | 88° |
| 2026-04-26 10:56 | 47.46603 | 8.82978 | 6213 ft | 265 kts | 99° |
| 2026-04-26 10:57 | 47.46258 | 8.85689 | 6485 ft | 274 kts | 103° |
| 2026-04-26 10:57 | 47.45840 | 8.88489 | 6934 ft | 282 kts | 103° |
| 2026-04-26 10:57 | 47.45412 | 8.91333 | 7529 ft | 285 kts | 102° |
| 2026-04-26 10:57 | 47.44994 | 8.94208 | 8139 ft | 288 kts | 102° |
| 2026-04-26 10:58 | 47.44577 | 8.97125 | 8699 ft | 292 kts | 102° |
| 2026-04-26 10:58 | 47.44154 | 9.00076 | 9260 ft | 296 kts | 102° |
| 2026-04-26 10:58 | 47.43731 | 9.03063 | 9836 ft | 299 kts | 101° |
| 2026-04-26 10:58 | 47.43297 | 9.06086 | 10345 ft | 303 kts | 101° |
| 2026-04-26 10:59 | 47.42848 | 9.09188 | 10612 ft | 315 kts | 101° |
| 2026-04-26 10:59 | 47.42380 | 9.12414 | 10847 ft | 328 kts | 102° |
| 2026-04-26 10:59 | 47.41893 | 9.15776 | 11082 ft | 341 kts | 101° |
| 2026-04-26 10:59 | 47.41464 | 9.19279 | 11308 ft | 353 kts | 94° |
| 2026-04-26 11:00 | 47.41554 | 9.22954 | 11535 ft | 364 kts | 82° |
| 2026-04-26 11:00 | 47.41979 | 9.26687 | 11806 ft | 374 kts | 77° |
| 2026-04-26 11:00 | 47.42571 | 9.30455 | 12219 ft | 380 kts | 75° |
| 2026-04-26 11:00 | 47.43225 | 9.34262 | 12679 ft | 384 kts | 75° |
| 2026-04-26 11:01 | 47.43885 | 9.38115 | 13117 ft | 389 kts | 75° |
| 2026-04-26 11:01 | 47.44529 | 9.42009 | 13617 ft | 392 kts | 76° |
| 2026-04-26 11:01 | 47.45154 | 9.45945 | 14120 ft | 396 kts | 77° |
| 2026-04-26 11:01 | 47.45768 | 9.49933 | 14525 ft | 400 kts | 76° |
| 2026-04-26 11:02 | 47.46374 | 9.53953 | 15039 ft | 401 kts | 77° |
| 2026-04-26 11:02 | 47.46925 | 9.58015 | 15453 ft | 406 kts | 82° |
| 2026-04-26 11:02 | 47.47068 | 9.62190 | 15910 ft | 409 kts | 90° |
| 2026-04-26 11:02 | 47.46989 | 9.66387 | 16438 ft | 409 kts | 93° |
| 2026-04-26 11:03 | 47.46805 | 9.70605 | 16849 ft | 413 kts | 94° |
| 2026-04-26 11:03 | 47.46568 | 9.74791 | 17319 ft | 415 kts | 95° |
| 2026-04-26 11:03 | 47.46306 | 9.79051 | 17768 ft | 417 kts | 95° |
| 2026-04-26 11:03 | 47.46040 | 9.83344 | 18167 ft | 421 kts | 95° |
| 2026-04-26 11:04 | 47.45780 | 9.87668 | 18645 ft | 423 kts | 95° |
| 2026-04-26 11:04 | 47.45525 | 9.92009 | 18989 ft | 427 kts | 95° |
| 2026-04-26 11:04 | 47.45270 | 9.96407 | 19346 ft | 430 kts | 95° |
| 2026-04-26 11:04 | 47.45016 | 10.00814 | 19775 ft | 431 kts | 95° |
| 2026-04-26 11:05 | 47.44763 | 10.05241 | 20117 ft | 435 kts | 94° |
| 2026-04-26 11:05 | 47.44507 | 10.09711 | 20479 ft | 437 kts | 95° |
| 2026-04-26 11:05 | 47.44247 | 10.14198 | 20869 ft | 439 kts | 95° |
| 2026-04-26 11:05 | 47.43874 | 10.18694 | 21202 ft | 442 kts | 99° |
| 2026-04-26 11:06 | 47.43356 | 10.23186 | 21565 ft | 445 kts | 100° |
| 2026-04-26 11:06 | 47.42792 | 10.27628 | 21923 ft | 447 kts | 101° |
| 2026-04-26 11:06 | 47.42189 | 10.32142 | 22258 ft | 449 kts | 101° |
| 2026-04-26 11:06 | 47.41560 | 10.36740 | 22603 ft | 452 kts | 101° |
| 2026-04-26 11:07 | 47.40940 | 10.41237 | 22930 ft | 455 kts | 101° |
| 2026-04-26 11:07 | 47.40308 | 10.45824 | 23253 ft | 457 kts | 101° |
| 2026-04-26 11:07 | 47.39674 | 10.50445 | 23533 ft | 461 kts | 101° |
| 2026-04-26 11:07 | 47.39037 | 10.55094 | 23829 ft | 463 kts | 101° |
| 2026-04-26 11:08 | 47.38391 | 10.59763 | 24093 ft | 465 kts | 101° |
| 2026-04-26 11:08 | 47.37739 | 10.64456 | 24361 ft | 467 kts | 101° |
| 2026-04-26 11:08 | 47.37084 | 10.69159 | 24639 ft | 469 kts | 101° |
| 2026-04-26 11:08 | 47.36424 | 10.73885 | 24900 ft | 471 kts | 101° |
| 2026-04-26 11:09 | 47.35761 | 10.78624 | 25159 ft | 473 kts | 101° |
| 2026-04-26 11:09 | 47.35094 | 10.83379 | 25403 ft | 474 kts | 101° |
| 2026-04-26 11:09 | 47.34422 | 10.88151 | 25671 ft | 476 kts | 101° |
| 2026-04-26 11:09 | 47.33749 | 10.92940 | 25926 ft | 477 kts | 101° |
| 2026-04-26 11:10 | 47.33073 | 10.97735 | 26163 ft | 479 kts | 101° |
| 2026-04-26 11:10 | 47.32389 | 11.02552 | 26374 ft | 481 kts | 101° |
| 2026-04-26 11:10 | 47.31702 | 11.07372 | 26616 ft | 482 kts | 101° |
| 2026-04-26 11:10 | 47.31007 | 11.12221 | 26848 ft | 484 kts | 101° |
| 2026-04-26 11:11 | 47.30319 | 11.17011 | 27073 ft | 485 kts | 101° |
| 2026-04-26 11:11 | 47.29617 | 11.21886 | 27296 ft | 487 kts | 101° |
| 2026-04-26 11:11 | 47.28912 | 11.26767 | 27494 ft | 488 kts | 101° |
| 2026-04-26 11:11 | 47.28196 | 11.31723 | 27738 ft | 489 kts | 101° |
| 2026-04-26 11:12 | 47.27483 | 11.36635 | 27956 ft | 491 kts | 101° |
| 2026-04-26 11:12 | 47.26775 | 11.41496 | 28161 ft | 492 kts | 101° |
| 2026-04-26 11:12 | 47.26053 | 11.46435 | 28382 ft | 494 kts | 101° |
| 2026-04-26 11:12 | 47.25327 | 11.51381 | 28584 ft | 495 kts | 101° |
| 2026-04-26 11:13 | 47.24667 | 11.56368 | 28794 ft | 497 kts | 98° |
| 2026-04-26 11:13 | 47.24113 | 11.61390 | 29016 ft | 497 kts | 97° |
| 2026-04-26 11:13 | 47.23604 | 11.66412 | 29327 ft | 496 kts | 97° |
| 2026-04-26 11:13 | 47.23102 | 11.71438 | 29636 ft | 495 kts | 97° |
| 2026-04-26 11:14 | 47.22590 | 11.76450 | 29912 ft | 495 kts | 97° |
| 2026-04-26 11:14 | 47.22064 | 11.81457 | 30157 ft | 495 kts | 97° |
| 2026-04-26 11:14 | 47.21525 | 11.86460 | 30357 ft | 495 kts | 98° |
| 2026-04-26 11:14 | 47.20983 | 11.91400 | 30590 ft | 494 kts | 98° |
| 2026-04-26 11:15 | 47.20469 | 11.96398 | 30820 ft | 494 kts | 97° |
| 2026-04-26 11:15 | 47.19985 | 12.01397 | 31016 ft | 493 kts | 97° |
| 2026-04-26 11:15 | 47.19512 | 12.06401 | 31170 ft | 494 kts | 96° |
| 2026-04-26 11:15 | 47.19038 | 12.11405 | 31196 ft | 492 kts | 97° |
| 2026-04-26 11:16 | 47.18080 | 12.21326 | 31196 ft | 489 kts | 97° |
| 2026-04-26 11:16 | 47.17102 | 12.31222 | 31193 ft | 489 kts | 97° |
| 2026-04-26 11:17 | 47.16109 | 12.41122 | 31195 ft | 490 kts | 97° |
| 2026-04-26 11:17 | 47.15109 | 12.51008 | 31193 ft | 490 kts | 97° |
| 2026-04-26 11:18 | 47.14099 | 12.60914 | 31192 ft | 490 kts | 98° |
| 2026-04-26 11:18 | 47.13081 | 12.70811 | 31187 ft | 490 kts | 98° |
| 2026-04-26 11:19 | 47.12055 | 12.80699 | 31182 ft | 490 kts | 98° |
| 2026-04-26 11:19 | 47.11019 | 12.90598 | 31181 ft | 490 kts | 98° |
| 2026-04-26 11:20 | 47.10153 | 12.98811 | 31174 ft | 490 kts | 98° |
| 2026-04-26 11:20 | 47.08930 | 13.10296 | 31175 ft | 490 kts | 98° |
| 2026-04-26 11:21 | 47.07867 | 13.20174 | 31174 ft | 490 kts | 98° |
| 2026-04-26 11:21 | 47.06798 | 13.30044 | 31168 ft | 490 kts | 98° |
| 2026-04-26 11:22 | 47.05718 | 13.39944 | 31170 ft | 492 kts | 98° |
| 2026-04-26 11:22 | 47.04629 | 13.49844 | 31172 ft | 492 kts | 98° |
| 2026-04-26 11:23 | 47.03529 | 13.59752 | 31165 ft | 492 kts | 98° |
| 2026-04-26 11:23 | 47.02421 | 13.69663 | 31166 ft | 491 kts | 99° |
| 2026-04-26 11:24 | 47.01316 | 13.79458 | 31166 ft | 490 kts | 99° |
| 2026-04-26 11:24 | 47.00195 | 13.89308 | 31160 ft | 490 kts | 99° |
| 2026-04-26 11:25 | 46.99068 | 13.99146 | 31155 ft | 490 kts | 99° |
| 2026-04-26 11:25 | 46.97931 | 14.08985 | 31148 ft | 489 kts | 99° |
| 2026-04-26 11:26 | 46.96789 | 14.18800 | 31145 ft | 488 kts | 99° |
| 2026-04-26 11:26 | 46.95639 | 14.28601 | 31141 ft | 488 kts | 99° |
| 2026-04-26 11:27 | 46.94480 | 14.38400 | 31133 ft | 489 kts | 99° |
| 2026-04-26 11:27 | 46.93314 | 14.48196 | 31132 ft | 488 kts | 99° |
| 2026-04-26 11:28 | 46.92138 | 14.57992 | 31122 ft | 488 kts | 99° |
| 2026-04-26 11:28 | 46.90954 | 14.67766 | 31120 ft | 488 kts | 100° |
| 2026-04-26 11:29 | 46.89764 | 14.77532 | 31119 ft | 488 kts | 100° |
| 2026-04-26 11:29 | 46.88567 | 14.87292 | 31120 ft | 488 kts | 100° |
| 2026-04-26 11:30 | 46.87564 | 14.95402 | 31122 ft | 488 kts | 100° |
| 2026-04-26 11:30 | 46.86154 | 15.06735 | 31124 ft | 487 kts | 100° |
| 2026-04-26 11:31 | 46.84931 | 15.16479 | 31126 ft | 487 kts | 100° |
| 2026-04-26 11:31 | 46.83700 | 15.26214 | 31130 ft | 487 kts | 100° |
| 2026-04-26 11:32 | 46.82460 | 15.35961 | 31123 ft | 487 kts | 100° |
| 2026-04-26 11:32 | 46.81214 | 15.45691 | 31120 ft | 487 kts | 100° |
| 2026-04-26 11:33 | 46.79959 | 15.55414 | 31133 ft | 487 kts | 100° |
| 2026-04-26 11:33 | 46.78696 | 15.65125 | 31133 ft | 487 kts | 100° |
| 2026-04-26 11:34 | 46.77428 | 15.74801 | 31126 ft | 490 kts | 100° |
| 2026-04-26 11:34 | 46.76141 | 15.84574 | 31140 ft | 491 kts | 100° |
| 2026-04-26 11:35 | 46.74843 | 15.94345 | 31139 ft | 491 kts | 100° |
| 2026-04-26 11:35 | 46.73751 | 16.02525 | 31158 ft | 491 kts | 100° |
| 2026-04-26 11:36 | 46.72227 | 16.13861 | 31153 ft | 491 kts | 100° |
| 2026-04-26 11:36 | 46.70904 | 16.23623 | 31161 ft | 491 kts | 101° |
| 2026-04-26 11:37 | 46.69573 | 16.33382 | 31159 ft | 491 kts | 101° |
| 2026-04-26 11:37 | 46.68234 | 16.43138 | 31169 ft | 491 kts | 101° |
| 2026-04-26 11:38 | 46.67048 | 16.52879 | 31162 ft | 492 kts | 98° |
| 2026-04-26 11:38 | 46.65970 | 16.62711 | 31161 ft | 492 kts | 98° |
| 2026-04-26 11:39 | 46.64866 | 16.72543 | 31166 ft | 492 kts | 98° |
| 2026-04-26 11:39 | 46.63726 | 16.82370 | 31169 ft | 492 kts | 99° |
| 2026-04-26 11:40 | 46.62765 | 16.90533 | 31183 ft | 494 kts | 99° |
| 2026-04-26 11:40 | 46.61596 | 17.00375 | 31180 ft | 494 kts | 99° |
| 2026-04-26 11:42 | 46.56832 | 17.39809 | 31176 ft | 496 kts | 99° |
| 2026-04-26 11:43 | 46.55618 | 17.49669 | 31167 ft | 495 kts | 99° |
| 2026-04-26 11:43 | 46.54403 | 17.59465 | 31162 ft | 495 kts | 99° |
| 2026-04-26 11:44 | 46.53171 | 17.69328 | 31157 ft | 498 kts | 99° |
| 2026-04-26 11:44 | 46.51927 | 17.79218 | 31157 ft | 498 kts | 99° |
| 2026-04-26 11:45 | 46.50673 | 17.89114 | 31154 ft | 498 kts | 99° |
| 2026-04-26 11:45 | 46.49410 | 17.99007 | 31154 ft | 498 kts | 99° |
| 2026-04-26 11:46 | 46.48139 | 18.08882 | 31153 ft | 498 kts | 99° |
| 2026-04-26 11:46 | 46.46858 | 18.18768 | 31146 ft | 498 kts | 99° |
| 2026-04-26 11:47 | 46.45571 | 18.28637 | 31148 ft | 498 kts | 99° |
| 2026-04-26 11:47 | 46.44272 | 18.38527 | 31142 ft | 498 kts | 99° |
| 2026-04-26 11:48 | 46.42975 | 18.48332 | 31138 ft | 499 kts | 99° |
| 2026-04-26 11:48 | 46.41657 | 18.58227 | 31138 ft | 499 kts | 99° |
| 2026-04-26 11:49 | 46.40333 | 18.68098 | 31136 ft | 499 kts | 99° |
| 2026-04-26 11:49 | 46.39001 | 18.77966 | 31140 ft | 499 kts | 99° |
| 2026-04-26 11:50 | 46.37659 | 18.87834 | 31129 ft | 499 kts | 99° |
| 2026-04-26 11:50 | 46.36309 | 18.97697 | 31128 ft | 499 kts | 99° |
| 2026-04-26 11:51 | 46.34950 | 19.07555 | 31124 ft | 499 kts | 99° |
| 2026-04-26 11:51 | 46.33590 | 19.17351 | 31133 ft | 499 kts | 99° |
| 2026-04-26 11:52 | 46.32213 | 19.27212 | 31115 ft | 500 kts | 100° |
| 2026-04-26 11:52 | 46.30825 | 19.37080 | 31118 ft | 500 kts | 100° |
| 2026-04-26 11:53 | 46.29429 | 19.46943 | 31114 ft | 500 kts | 100° |
| 2026-04-26 11:54 | 46.27318 | 19.61733 | 31104 ft | 501 kts | 100° |
| 2026-04-26 11:54 | 46.25901 | 19.71585 | 31103 ft | 501 kts | 100° |
| 2026-04-26 11:55 | 46.24485 | 19.81360 | 31097 ft | 501 kts | 100° |
| 2026-04-26 11:55 | 46.23051 | 19.91199 | 31094 ft | 501 kts | 100° |
| 2026-04-26 11:56 | 46.21606 | 20.01051 | 31094 ft | 501 kts | 100° |
| 2026-04-26 11:56 | 46.20154 | 20.10886 | 31086 ft | 501 kts | 100° |
| 2026-04-26 11:57 | 46.18693 | 20.20725 | 31089 ft | 501 kts | 101° |
| 2026-04-26 11:57 | 46.17225 | 20.30547 | 31087 ft | 501 kts | 101° |
| 2026-04-26 11:58 | 46.15748 | 20.40369 | 31082 ft | 501 kts | 101° |
| 2026-04-26 11:58 | 46.13939 | 20.50035 | 31079 ft | 503 kts | 106° |
| 2026-04-26 11:59 | 46.11778 | 20.59622 | 31078 ft | 503 kts | 107° |
| 2026-04-26 11:59 | 46.09637 | 20.69224 | 31068 ft | 503 kts | 106° |
| 2026-04-26 12:00 | 46.07553 | 20.78846 | 31063 ft | 503 kts | 105° |
| 2026-04-26 12:00 | 46.05486 | 20.88484 | 31072 ft | 504 kts | 105° |
| 2026-04-26 12:01 | 46.03413 | 20.98115 | 31073 ft | 504 kts | 106° |
| 2026-04-26 12:01 | 46.01329 | 21.07735 | 31067 ft | 504 kts | 106° |
| 2026-04-26 12:02 | 45.99230 | 21.17377 | 31072 ft | 505 kts | 106° |
| 2026-04-26 12:02 | 45.97135 | 21.26948 | 31050 ft | 505 kts | 106° |
| 2026-04-26 12:03 | 45.95021 | 21.36567 | 31042 ft | 505 kts | 106° |
| 2026-04-26 12:03 | 45.92896 | 21.46189 | 31046 ft | 505 kts | 106° |
| 2026-04-26 12:04 | 45.90762 | 21.55810 | 31043 ft | 506 kts | 106° |
| 2026-04-26 12:04 | 45.88622 | 21.65418 | 31026 ft | 505 kts | 106° |
| 2026-04-26 12:05 | 45.86471 | 21.75030 | 31025 ft | 506 kts | 106° |
| 2026-04-26 12:05 | 45.84310 | 21.84640 | 31019 ft | 506 kts | 106° |
| 2026-04-26 12:06 | 45.82136 | 21.94263 | 31015 ft | 507 kts | 106° |
| 2026-04-26 12:06 | 45.79958 | 22.03864 | 31015 ft | 507 kts | 107° |
| 2026-04-26 12:07 | 45.77771 | 22.13460 | 31029 ft | 507 kts | 107° |
| 2026-04-26 12:07 | 45.75590 | 22.22985 | 31009 ft | 507 kts | 107° |
| 2026-04-26 12:08 | 45.73386 | 22.32574 | 31010 ft | 506 kts | 107° |
| 2026-04-26 12:08 | 45.71175 | 22.42137 | 31005 ft | 506 kts | 107° |
| 2026-04-26 12:09 | 45.68960 | 22.51700 | 30997 ft | 506 kts | 107° |
| 2026-04-26 12:09 | 45.66734 | 22.61254 | 30999 ft | 506 kts | 107° |
| 2026-04-26 12:10 | 45.64507 | 22.70802 | 30999 ft | 506 kts | 107° |
| 2026-04-26 12:10 | 45.62270 | 22.80342 | 30982 ft | 506 kts | 107° |
| 2026-04-26 12:11 | 45.60012 | 22.89878 | 30985 ft | 507 kts | 107° |
| 2026-04-26 12:11 | 45.57751 | 22.99397 | 30975 ft | 506 kts | 107° |
| 2026-04-26 12:12 | 45.55500 | 23.08850 | 30970 ft | 507 kts | 107° |
| 2026-04-26 12:12 | 45.53228 | 23.18355 | 30970 ft | 506 kts | 108° |
| 2026-04-26 12:13 | 45.50944 | 23.27871 | 30965 ft | 508 kts | 107° |
| 2026-04-26 12:13 | 45.48640 | 23.37428 | 30968 ft | 511 kts | 107° |
| 2026-04-26 12:14 | 45.46323 | 23.46989 | 30969 ft | 510 kts | 107° |
| 2026-04-26 12:14 | 45.43997 | 23.56553 | 30957 ft | 510 kts | 108° |
| 2026-04-26 12:15 | 45.41668 | 23.66089 | 30952 ft | 510 kts | 108° |
| 2026-04-26 12:15 | 45.39331 | 23.75617 | 30952 ft | 510 kts | 108° |
| 2026-04-26 12:16 | 45.36998 | 23.85091 | 30954 ft | 510 kts | 108° |
| 2026-04-26 12:16 | 45.34640 | 23.94617 | 30945 ft | 510 kts | 108° |
| 2026-04-26 12:17 | 45.32277 | 24.04133 | 30932 ft | 510 kts | 108° |
| 2026-04-26 12:17 | 45.29911 | 24.13625 | 30929 ft | 510 kts | 108° |
| 2026-04-26 12:18 | 45.27538 | 24.23103 | 30922 ft | 510 kts | 108° |
| 2026-04-26 12:18 | 45.25148 | 24.32595 | 30912 ft | 511 kts | 108° |
| 2026-04-26 12:19 | 45.22748 | 24.42101 | 30912 ft | 511 kts | 108° |
| 2026-04-26 12:19 | 45.20344 | 24.51584 | 30905 ft | 511 kts | 108° |
| 2026-04-26 12:20 | 45.17944 | 24.61007 | 30897 ft | 511 kts | 108° |
| 2026-04-26 12:20 | 45.15526 | 24.70467 | 30899 ft | 510 kts | 108° |
| 2026-04-26 12:21 | 45.13101 | 24.79917 | 30892 ft | 510 kts | 108° |
| 2026-04-26 12:21 | 45.10665 | 24.89368 | 30886 ft | 510 kts | 108° |
| 2026-04-26 12:22 | 45.08224 | 24.98801 | 30884 ft | 510 kts | 108° |
| 2026-04-26 12:22 | 45.05779 | 25.08222 | 30884 ft | 510 kts | 108° |
| 2026-04-26 12:23 | 45.03323 | 25.17631 | 30875 ft | 510 kts | 108° |
| 2026-04-26 12:23 | 45.00864 | 25.27020 | 30874 ft | 510 kts | 109° |
| 2026-04-26 12:24 | 44.98118 | 25.36291 | 31142 ft | 512 kts | 114° |
| 2026-04-26 12:24 | 44.96577 | 25.40825 | 31340 ft | 512 kts | 115° |
| 2026-04-26 12:24 | 44.95009 | 25.45339 | 31540 ft | 512 kts | 115° |
| 2026-04-26 12:25 | 44.91845 | 25.54327 | 31928 ft | 511 kts | 115° |
| 2026-04-26 12:25 | 44.90259 | 25.58813 | 32121 ft | 510 kts | 115° |
| 2026-04-26 12:25 | 44.88678 | 25.63286 | 32403 ft | 508 kts | 115° |
| 2026-04-26 12:25 | 44.87127 | 25.67673 | 32632 ft | 506 kts | 115° |
| 2026-04-26 12:26 | 44.85556 | 25.72112 | 32794 ft | 506 kts | 115° |
| 2026-04-26 12:26 | 44.83986 | 25.76546 | 32845 ft | 503 kts | 115° |
| 2026-04-26 12:26 | 44.80890 | 25.85271 | 32850 ft | 495 kts | 115° |
| 2026-04-26 12:27 | 44.78324 | 25.92482 | 32853 ft | 495 kts | 116° |
| 2026-04-26 12:27 | 44.75235 | 26.01139 | 32852 ft | 494 kts | 116° |
| 2026-04-26 12:28 | 44.72139 | 26.09784 | 32853 ft | 493 kts | 116° |
| 2026-04-26 12:28 | 44.69057 | 26.18363 | 32854 ft | 491 kts | 116° |
| 2026-04-26 12:29 | 44.65967 | 26.26940 | 32846 ft | 492 kts | 116° |
| 2026-04-26 12:30 | 44.61322 | 26.39780 | 32842 ft | 493 kts | 116° |
| 2026-04-26 12:30 | 44.58207 | 26.48357 | 32848 ft | 494 kts | 116° |
| 2026-04-26 12:31 | 44.53515 | 26.61226 | 32843 ft | 495 kts | 116° |
| 2026-04-26 12:31 | 44.50375 | 26.69805 | 32843 ft | 495 kts | 116° |
| 2026-04-26 12:32 | 44.47227 | 26.78379 | 32843 ft | 495 kts | 116° |
| 2026-04-26 12:33 | 44.42489 | 26.91231 | 32849 ft | 495 kts | 116° |
| 2026-04-26 12:33 | 44.39326 | 26.99781 | 32851 ft | 495 kts | 116° |
| 2026-04-26 12:34 | 44.36151 | 27.08334 | 32849 ft | 495 kts | 117° |
| 2026-04-26 12:34 | 44.32977 | 27.16859 | 32846 ft | 494 kts | 117° |
| 2026-04-26 12:35 | 44.29804 | 27.25354 | 32848 ft | 492 kts | 117° |
| 2026-04-26 12:35 | 44.26651 | 27.33770 | 32849 ft | 493 kts | 117° |
| 2026-04-26 12:36 | 44.23472 | 27.42231 | 32847 ft | 493 kts | 117° |
| 2026-04-26 12:36 | 44.20290 | 27.50673 | 32850 ft | 491 kts | 117° |
| 2026-04-26 12:37 | 44.17107 | 27.59094 | 32848 ft | 491 kts | 117° |
| 2026-04-26 12:37 | 44.13921 | 27.67496 | 32852 ft | 491 kts | 117° |
| 2026-04-26 12:38 | 44.10727 | 27.75894 | 32855 ft | 491 kts | 117° |
| 2026-04-26 12:38 | 44.07525 | 27.84289 | 32853 ft | 491 kts | 117° |
| 2026-04-26 12:39 | 44.04320 | 27.92664 | 32854 ft | 490 kts | 118° |
| 2026-04-26 12:39 | 44.01116 | 28.01014 | 32850 ft | 489 kts | 118° |
| 2026-04-26 12:40 | 43.97907 | 28.09352 | 32848 ft | 490 kts | 118° |
| 2026-04-26 12:40 | 43.94705 | 28.17645 | 32850 ft | 490 kts | 118° |
| 2026-04-26 12:41 | 43.91481 | 28.25973 | 32853 ft | 490 kts | 118° |
| 2026-04-26 12:41 | 43.88246 | 28.34302 | 32853 ft | 490 kts | 118° |
| 2026-04-26 12:42 | 43.85002 | 28.42632 | 32855 ft | 492 kts | 118° |
| 2026-04-26 12:42 | 43.81746 | 28.50967 | 32863 ft | 492 kts | 118° |
| 2026-04-26 12:43 | 43.78484 | 28.59291 | 32865 ft | 492 kts | 118° |
| 2026-04-26 12:43 | 43.75213 | 28.67618 | 32864 ft | 493 kts | 119° |
| 2026-04-26 12:44 | 43.71946 | 28.75907 | 32878 ft | 495 kts | 119° |
| 2026-04-26 12:44 | 43.68337 | 28.83973 | 32879 ft | 493 kts | 126° |
| 2026-04-26 12:45 | 43.64354 | 28.91718 | 32884 ft | 493 kts | 127° |
| 2026-04-26 12:45 | 43.60316 | 28.99387 | 32887 ft | 494 kts | 127° |
| 2026-04-26 12:46 | 43.56265 | 29.07061 | 32892 ft | 494 kts | 127° |
| 2026-04-26 12:46 | 43.52223 | 29.14721 | 32893 ft | 494 kts | 127° |
| 2026-04-26 12:47 | 43.48176 | 29.22382 | 32897 ft | 494 kts | 127° |
| 2026-04-26 12:47 | 43.44129 | 29.30026 | 32899 ft | 494 kts | 127° |
| 2026-04-26 12:48 | 43.40080 | 29.37653 | 32899 ft | 494 kts | 127° |
| 2026-04-26 12:48 | 43.36028 | 29.45265 | 32903 ft | 493 kts | 128° |
| 2026-04-26 12:49 | 43.31969 | 29.52870 | 32908 ft | 493 kts | 128° |
| 2026-04-26 12:49 | 43.27912 | 29.60452 | 32914 ft | 493 kts | 128° |
| 2026-04-26 12:50 | 43.23873 | 29.67982 | 32913 ft | 493 kts | 128° |
| 2026-04-26 12:50 | 43.19795 | 29.75563 | 32915 ft | 493 kts | 128° |
| 2026-04-26 12:51 | 43.15722 | 29.83116 | 32914 ft | 493 kts | 128° |
| 2026-04-26 12:51 | 43.11644 | 29.90661 | 32925 ft | 493 kts | 128° |
| 2026-04-26 12:52 | 43.07563 | 29.98190 | 32923 ft | 492 kts | 128° |
| 2026-04-26 12:52 | 43.03462 | 30.05738 | 32925 ft | 497 kts | 128° |
| 2026-04-26 12:53 | 42.99336 | 30.13310 | 32928 ft | 504 kts | 128° |
| 2026-04-26 12:53 | 42.95128 | 30.21016 | 32942 ft | 506 kts | 128° |
| 2026-04-26 12:54 | 42.90924 | 30.28696 | 32931 ft | 504 kts | 128° |
| 2026-04-26 12:54 | 42.86725 | 30.36345 | 32937 ft | 504 kts | 128° |
| 2026-04-26 12:55 | 42.82519 | 30.43987 | 32935 ft | 504 kts | 128° |
| 2026-04-26 12:55 | 42.78307 | 30.51621 | 32941 ft | 504 kts | 128° |
| 2026-04-26 12:56 | 42.74370 | 30.59495 | 32949 ft | 505 kts | 117° |
| 2026-04-26 12:56 | 42.71911 | 30.68434 | 32941 ft | 505 kts | 107° |
| 2026-04-26 12:57 | 42.69899 | 30.77596 | 32941 ft | 506 kts | 106° |
| 2026-04-26 12:57 | 42.67944 | 30.86787 | 32944 ft | 505 kts | 106° |
| 2026-04-26 12:58 | 42.64970 | 31.00466 | 32942 ft | 505 kts | 107° |
| 2026-04-26 12:58 | 42.62948 | 31.09615 | 32948 ft | 505 kts | 107° |
| 2026-04-26 12:59 | 42.60922 | 31.18734 | 32939 ft | 504 kts | 107° |
| 2026-04-26 12:59 | 42.58891 | 31.27841 | 32953 ft | 504 kts | 107° |
| 2026-04-26 13:00 | 42.56855 | 31.36939 | 32954 ft | 504 kts | 107° |
| 2026-04-26 13:00 | 42.54809 | 31.46043 | 32954 ft | 504 kts | 107° |
| 2026-04-26 13:01 | 42.52760 | 31.55123 | 32949 ft | 503 kts | 107° |
| 2026-04-26 13:01 | 42.50703 | 31.64199 | 32947 ft | 503 kts | 107° |
| 2026-04-26 13:02 | 42.48654 | 31.73204 | 32950 ft | 502 kts | 107° |
| 2026-04-26 13:02 | 42.46586 | 31.82253 | 32963 ft | 501 kts | 107° |
| 2026-04-26 13:03 | 42.44516 | 31.91278 | 32963 ft | 501 kts | 107° |
| 2026-04-26 13:03 | 42.42440 | 32.00290 | 32950 ft | 502 kts | 107° |
| 2026-04-26 13:04 | 42.40359 | 32.09286 | 32961 ft | 500 kts | 107° |
| 2026-04-26 13:04 | 42.38289 | 32.18200 | 32945 ft | 499 kts | 107° |
| 2026-04-26 13:05 | 42.36200 | 32.27158 | 32953 ft | 499 kts | 107° |
| 2026-04-26 13:05 | 42.34105 | 32.36109 | 32957 ft | 499 kts | 107° |
| 2026-04-26 13:06 | 42.32010 | 32.45022 | 32946 ft | 497 kts | 107° |
| 2026-04-26 13:06 | 42.29910 | 32.53924 | 32950 ft | 498 kts | 108° |
| 2026-04-26 13:07 | 42.27798 | 32.62837 | 32947 ft | 499 kts | 108° |
| 2026-04-26 13:07 | 42.25679 | 32.71747 | 32951 ft | 499 kts | 108° |
| 2026-04-26 13:08 | 42.23551 | 32.80662 | 32952 ft | 499 kts | 108° |
| 2026-04-26 13:08 | 42.21427 | 32.89520 | 32954 ft | 499 kts | 108° |
| 2026-04-26 13:09 | 42.19287 | 32.98415 | 32952 ft | 498 kts | 108° |
| 2026-04-26 13:09 | 42.17149 | 33.07267 | 32958 ft | 496 kts | 108° |
| 2026-04-26 13:10 | 42.15002 | 33.16118 | 32960 ft | 496 kts | 108° |
| 2026-04-26 13:10 | 42.12850 | 33.24960 | 32966 ft | 496 kts | 108° |
| 2026-04-26 13:11 | 42.10695 | 33.33781 | 32943 ft | 495 kts | 108° |
| 2026-04-26 13:11 | 42.08536 | 33.42583 | 32960 ft | 495 kts | 108° |
| 2026-04-26 13:12 | 42.06371 | 33.51372 | 32959 ft | 494 kts | 108° |
| 2026-04-26 13:12 | 42.04217 | 33.60091 | 32935 ft | 494 kts | 108° |
| 2026-04-26 13:13 | 42.02043 | 33.68853 | 32953 ft | 493 kts | 108° |
| 2026-04-26 13:13 | 41.99868 | 33.77586 | 32941 ft | 492 kts | 108° |
| 2026-04-26 13:14 | 41.97688 | 33.86310 | 32950 ft | 492 kts | 108° |
| 2026-04-26 13:14 | 41.95497 | 33.95042 | 32949 ft | 493 kts | 108° |
| 2026-04-26 13:15 | 41.93669 | 34.02304 | 32951 ft | 494 kts | 108° |
| 2026-04-26 13:15 | 41.91465 | 34.11030 | 32949 ft | 494 kts | 108° |
| 2026-04-26 13:16 | 41.89255 | 34.19753 | 32948 ft | 493 kts | 108° |
| 2026-04-26 13:16 | 41.87042 | 34.28450 | 32949 ft | 491 kts | 108° |
| 2026-04-26 13:17 | 41.83722 | 34.41438 | 32943 ft | 490 kts | 108° |
| 2026-04-26 13:18 | 41.80390 | 34.54401 | 32928 ft | 490 kts | 108° |
| 2026-04-26 13:19 | 41.77066 | 34.67269 | 32944 ft | 488 kts | 108° |
| 2026-04-26 13:19 | 41.74832 | 34.75874 | 32938 ft | 489 kts | 108° |
| 2026-04-26 13:20 | 41.72594 | 34.84467 | 32919 ft | 488 kts | 109° |
| 2026-04-26 13:20 | 41.70359 | 34.93018 | 32941 ft | 485 kts | 109° |
| 2026-04-26 13:21 | 41.68138 | 35.01487 | 32946 ft | 486 kts | 109° |
| 2026-04-26 13:21 | 41.65895 | 35.10010 | 32945 ft | 486 kts | 109° |
| 2026-04-26 13:22 | 41.63642 | 35.18536 | 32925 ft | 486 kts | 109° |
| 2026-04-26 13:22 | 41.61386 | 35.27047 | 32943 ft | 486 kts | 109° |
| 2026-04-26 13:23 | 41.59122 | 35.35562 | 32948 ft | 486 kts | 109° |
| 2026-04-26 13:23 | 41.56848 | 35.44081 | 32948 ft | 486 kts | 109° |
| 2026-04-26 13:24 | 41.54571 | 35.52583 | 32926 ft | 486 kts | 109° |
| 2026-04-26 13:24 | 41.52290 | 35.61069 | 32951 ft | 486 kts | 110° |
| 2026-04-26 13:25 | 41.50017 | 35.69494 | 32938 ft | 485 kts | 110° |
| 2026-04-26 13:25 | 41.47726 | 35.77963 | 32938 ft | 486 kts | 110° |
| 2026-04-26 13:26 | 41.45428 | 35.86427 | 32951 ft | 486 kts | 110° |
| 2026-04-26 13:26 | 41.43123 | 35.94886 | 32937 ft | 485 kts | 110° |
| 2026-04-26 13:27 | 41.40810 | 36.03348 | 32937 ft | 486 kts | 110° |
| 2026-04-26 13:27 | 41.38505 | 36.11753 | 32935 ft | 486 kts | 110° |
| 2026-04-26 13:28 | 41.36177 | 36.20210 | 32946 ft | 486 kts | 110° |
| 2026-04-26 13:28 | 41.33843 | 36.28663 | 32940 ft | 487 kts | 110° |
| 2026-04-26 13:29 | 41.31506 | 36.37095 | 32921 ft | 485 kts | 111° |
| 2026-04-26 13:29 | 41.29170 | 36.45500 | 32924 ft | 484 kts | 111° |
| 2026-04-26 13:30 | 41.26971 | 36.53954 | 32936 ft | 484 kts | 104° |
| 2026-04-26 13:30 | 41.25945 | 36.62792 | 32940 ft | 484 kts | 97° |
| 2026-04-26 13:31 | 41.25269 | 36.71659 | 32935 ft | 486 kts | 96° |
| 2026-04-26 13:31 | 41.24637 | 36.80602 | 32940 ft | 486 kts | 96° |
| 2026-04-26 13:32 | 41.23985 | 36.89538 | 32930 ft | 486 kts | 96° |
| 2026-04-26 13:32 | 41.23310 | 36.98467 | 32935 ft | 486 kts | 96° |
| 2026-04-26 13:33 | 41.22624 | 37.07402 | 32914 ft | 487 kts | 97° |
| 2026-04-26 13:33 | 41.21932 | 37.16302 | 32930 ft | 487 kts | 97° |
| 2026-04-26 13:34 | 41.21233 | 37.25258 | 32926 ft | 487 kts | 97° |
| 2026-04-26 13:34 | 41.20572 | 37.34207 | 32926 ft | 487 kts | 96° |
| 2026-04-26 13:35 | 41.19919 | 37.43175 | 32924 ft | 489 kts | 97° |
| 2026-04-26 13:35 | 41.19250 | 37.52178 | 32923 ft | 490 kts | 97° |
| 2026-04-26 13:36 | 41.18632 | 37.61201 | 32928 ft | 491 kts | 95° |
| 2026-04-26 13:36 | 41.18064 | 37.70228 | 32930 ft | 491 kts | 97° |
| 2026-04-26 13:37 | 41.17290 | 37.79172 | 32922 ft | 491 kts | 98° |
| 2026-04-26 13:37 | 41.16482 | 37.88176 | 32921 ft | 492 kts | 98° |
| 2026-04-26 13:38 | 41.15726 | 37.97203 | 32917 ft | 492 kts | 97° |
| 2026-04-26 13:38 | 41.15010 | 38.06233 | 32917 ft | 492 kts | 97° |
| 2026-04-26 13:39 | 41.14287 | 38.15272 | 32916 ft | 492 kts | 98° |
| 2026-04-26 13:39 | 41.13551 | 38.24311 | 32919 ft | 493 kts | 98° |
| 2026-04-26 13:40 | 41.12806 | 38.33350 | 32920 ft | 493 kts | 98° |
| 2026-04-26 13:40 | 41.12063 | 38.42326 | 32925 ft | 493 kts | 98° |
| 2026-04-26 13:41 | 41.11309 | 38.51363 | 32926 ft | 493 kts | 98° |
| 2026-04-26 13:41 | 41.10547 | 38.60403 | 32931 ft | 493 kts | 98° |
| 2026-04-26 13:42 | 41.09772 | 38.69433 | 32934 ft | 493 kts | 99° |
| 2026-04-26 13:42 | 41.08975 | 38.78448 | 32933 ft | 492 kts | 99° |
| 2026-04-26 13:43 | 41.08154 | 38.87417 | 32929 ft | 493 kts | 99° |
| 2026-04-26 13:43 | 41.07323 | 38.96443 | 32933 ft | 493 kts | 99° |
| 2026-04-26 13:44 | 41.06491 | 39.05465 | 32939 ft | 493 kts | 99° |
| 2026-04-26 13:44 | 41.05653 | 39.14495 | 32936 ft | 493 kts | 99° |
| 2026-04-26 13:45 | 41.04822 | 39.23519 | 32935 ft | 493 kts | 99° |
| 2026-04-26 13:45 | 41.03991 | 39.32550 | 32937 ft | 493 kts | 99° |
| 2026-04-26 13:46 | 41.03153 | 39.41567 | 32936 ft | 493 kts | 99° |
| 2026-04-26 13:46 | 41.02305 | 39.50590 | 32937 ft | 493 kts | 99° |
| 2026-04-26 13:47 | 41.01455 | 39.59550 | 32936 ft | 493 kts | 99° |
| 2026-04-26 13:47 | 41.00594 | 39.68555 | 32937 ft | 492 kts | 99° |
| 2026-04-26 13:48 | 40.99866 | 39.77575 | 32942 ft | 494 kts | 93° |
| 2026-04-26 13:48 | 41.00579 | 39.86655 | 32939 ft | 497 kts | 82° |
| 2026-04-26 13:49 | 41.01880 | 39.95652 | 32938 ft | 498 kts | 80° |
| 2026-04-26 13:49 | 41.03265 | 40.04647 | 32943 ft | 498 kts | 80° |
| 2026-04-26 13:50 | 41.04630 | 40.13669 | 32944 ft | 500 kts | 81° |
| 2026-04-26 13:50 | 41.05970 | 40.22713 | 32951 ft | 501 kts | 81° |
| 2026-04-26 13:51 | 41.07290 | 40.31720 | 32952 ft | 501 kts | 81° |
| 2026-04-26 13:51 | 41.08611 | 40.40794 | 32944 ft | 501 kts | 81° |
| 2026-04-26 13:52 | 41.09926 | 40.49868 | 32946 ft | 501 kts | 81° |
| 2026-04-26 13:52 | 41.11233 | 40.58943 | 32943 ft | 501 kts | 81° |
| 2026-04-26 13:53 | 41.12534 | 40.68023 | 32940 ft | 501 kts | 81° |
| 2026-04-26 13:53 | 41.13829 | 40.77117 | 32940 ft | 503 kts | 82° |
| 2026-04-26 13:54 | 41.15123 | 40.86256 | 32938 ft | 504 kts | 82° |
| 2026-04-26 13:54 | 41.16410 | 40.95412 | 32935 ft | 505 kts | 82° |
| 2026-04-26 13:55 | 41.18114 | 41.07604 | 32943 ft | 504 kts | 82° |
| 2026-04-26 13:56 | 41.20232 | 41.22897 | 32967 ft | 505 kts | 82° |
| 2026-04-26 13:56 | 41.21490 | 41.32026 | 32970 ft | 505 kts | 82° |
| 2026-04-26 13:57 | 41.22745 | 41.41231 | 32959 ft | 507 kts | 82° |
| 2026-04-26 13:57 | 41.23995 | 41.50461 | 32963 ft | 507 kts | 82° |
| 2026-04-26 13:58 | 41.25240 | 41.59697 | 32960 ft | 508 kts | 83° |
| 2026-04-26 13:58 | 41.26481 | 41.68970 | 32968 ft | 510 kts | 83° |
| 2026-04-26 13:59 | 41.27716 | 41.78257 | 32961 ft | 509 kts | 83° |
| 2026-04-26 13:59 | 41.28942 | 41.87528 | 32956 ft | 509 kts | 83° |
| 2026-04-26 14:00 | 41.30776 | 42.01529 | 33219 ft | 515 kts | 83° |
| 2026-04-26 14:00 | 41.31375 | 42.06159 | 33376 ft | 515 kts | 83° |
| 2026-04-26 14:00 | 41.31784 | 42.09338 | 33510 ft | 515 kts | 83° |
| 2026-04-26 14:01 | 41.32583 | 42.15563 | 33689 ft | 516 kts | 84° |
| 2026-04-26 14:01 | 41.33182 | 42.20262 | 33885 ft | 515 kts | 84° |
| 2026-04-26 14:01 | 41.33779 | 42.24957 | 34044 ft | 515 kts | 84° |
| 2026-04-26 14:01 | 41.34375 | 42.29653 | 34191 ft | 514 kts | 83° |
| 2026-04-26 14:02 | 41.34966 | 42.34338 | 34354 ft | 513 kts | 83° |
| 2026-04-26 14:02 | 41.36151 | 42.43763 | 34500 ft | 516 kts | 83° |
| 2026-04-26 14:02 | 41.36741 | 42.48465 | 34659 ft | 515 kts | 83° |
| 2026-04-26 14:03 | 41.37330 | 42.53170 | 34793 ft | 515 kts | 83° |
| 2026-04-26 14:03 | 41.37917 | 42.57875 | 34951 ft | 515 kts | 83° |
| 2026-04-26 14:03 | 41.38502 | 42.62590 | 35010 ft | 516 kts | 83° |
| 2026-04-26 14:04 | 41.39664 | 42.72024 | 35010 ft | 519 kts | 83° |
| 2026-04-26 14:04 | 41.40824 | 42.81494 | 35012 ft | 518 kts | 83° |
| 2026-04-26 14:05 | 41.41978 | 42.90973 | 35013 ft | 518 kts | 83° |
| 2026-04-26 14:05 | 41.42673 | 43.00475 | 35000 ft | 513 kts | 93° |
| 2026-04-26 14:06 | 41.42557 | 43.09980 | 35013 ft | 513 kts | 95° |
| 2026-04-26 14:06 | 41.42352 | 43.17895 | 35017 ft | 514 kts | 95° |
| 2026-04-26 14:07 | 41.42081 | 43.27420 | 35029 ft | 514 kts | 95° |
| 2026-04-26 14:07 | 41.41814 | 43.36943 | 35032 ft | 515 kts | 95° |
| 2026-04-26 14:08 | 41.41548 | 43.46474 | 35050 ft | 514 kts | 95° |
| 2026-04-26 14:08 | 41.41278 | 43.55999 | 35048 ft | 514 kts | 95° |
| 2026-04-26 14:09 | 41.41001 | 43.65508 | 35081 ft | 514 kts | 95° |
| 2026-04-26 14:09 | 41.40714 | 43.74974 | 35095 ft | 516 kts | 95° |
| 2026-04-26 14:10 | 41.40418 | 43.84538 | 35092 ft | 517 kts | 95° |
| 2026-04-26 14:10 | 41.40113 | 43.94096 | 35091 ft | 516 kts | 95° |
| 2026-04-26 14:11 | 41.39646 | 44.08353 | 35102 ft | 512 kts | 95° |
| 2026-04-26 14:11 | 41.39325 | 44.17842 | 35104 ft | 513 kts | 95° |
| 2026-04-26 14:12 | 41.38995 | 44.27345 | 35117 ft | 514 kts | 95° |
| 2026-04-26 14:12 | 41.38658 | 44.36833 | 35120 ft | 516 kts | 95° |
| 2026-04-26 14:13 | 41.38135 | 44.51147 | 35123 ft | 516 kts | 95° |
| 2026-04-26 14:14 | 41.37777 | 44.60689 | 35125 ft | 516 kts | 95° |
| 2026-04-26 14:14 | 41.37410 | 44.70225 | 35111 ft | 516 kts | 96° |
| 2026-04-26 14:15 | 41.37034 | 44.79766 | 35094 ft | 516 kts | 95° |
| 2026-04-26 14:15 | 41.36654 | 44.89280 | 35104 ft | 513 kts | 95° |
| 2026-04-26 14:16 | 41.36269 | 44.98704 | 35107 ft | 513 kts | 95° |
| 2026-04-26 14:16 | 41.35624 | 45.08143 | 35095 ft | 509 kts | 105° |
| 2026-04-26 14:17 | 41.33659 | 45.17144 | 35107 ft | 506 kts | 111° |
| 2026-04-26 14:17 | 41.31392 | 45.26013 | 35101 ft | 507 kts | 112° |
| 2026-04-26 14:18 | 41.29064 | 45.34904 | 35092 ft | 508 kts | 112° |
| 2026-04-26 14:18 | 41.26765 | 45.43727 | 35087 ft | 508 kts | 112° |
| 2026-04-26 14:19 | 41.24459 | 45.52608 | 35086 ft | 509 kts | 112° |
| 2026-04-26 14:19 | 41.22139 | 45.61522 | 35091 ft | 511 kts | 112° |
| 2026-04-26 14:20 | 41.19812 | 45.70443 | 35091 ft | 511 kts | 112° |
| 2026-04-26 14:20 | 41.17463 | 45.79359 | 35093 ft | 511 kts | 112° |
| 2026-04-26 14:21 | 41.15106 | 45.88259 | 35090 ft | 511 kts | 112° |
| 2026-04-26 14:21 | 41.12745 | 45.97156 | 35091 ft | 511 kts | 112° |
| 2026-04-26 14:22 | 41.10391 | 46.05999 | 35096 ft | 511 kts | 112° |
| 2026-04-26 14:22 | 41.08020 | 46.14876 | 35087 ft | 511 kts | 112° |
| 2026-04-26 14:23 | 41.05645 | 46.23735 | 35102 ft | 510 kts | 112° |
| 2026-04-26 14:23 | 41.03267 | 46.32592 | 35096 ft | 509 kts | 112° |
| 2026-04-26 14:24 | 41.00903 | 46.41447 | 35100 ft | 510 kts | 112° |
| 2026-04-26 14:24 | 40.98551 | 46.50234 | 35096 ft | 509 kts | 112° |
| 2026-04-26 14:25 | 40.96178 | 46.59063 | 35103 ft | 508 kts | 112° |
| 2026-04-26 14:25 | 40.93800 | 46.67874 | 35102 ft | 508 kts | 112° |
| 2026-04-26 14:26 | 40.91417 | 46.76672 | 35101 ft | 508 kts | 112° |
| 2026-04-26 14:26 | 40.89037 | 46.85440 | 35105 ft | 507 kts | 112° |
| 2026-04-26 14:27 | 40.86640 | 46.94200 | 35108 ft | 506 kts | 113° |
| 2026-04-26 14:27 | 40.84231 | 47.02946 | 35105 ft | 506 kts | 113° |
| 2026-04-26 14:28 | 40.81824 | 47.11665 | 35102 ft | 504 kts | 113° |
| 2026-04-26 14:28 | 40.79437 | 47.20294 | 35102 ft | 503 kts | 113° |
| 2026-04-26 14:29 | 40.77012 | 47.28964 | 35100 ft | 503 kts | 114° |
| 2026-04-26 14:29 | 40.74575 | 47.37630 | 35091 ft | 503 kts | 114° |
| 2026-04-26 14:30 | 40.72145 | 47.46275 | 35087 ft | 502 kts | 114° |
| 2026-04-26 14:30 | 40.69719 | 47.54901 | 35083 ft | 502 kts | 114° |
| 2026-04-26 14:31 | 40.67286 | 47.63525 | 35075 ft | 502 kts | 114° |
| 2026-04-26 14:31 | 40.64847 | 47.72141 | 35072 ft | 502 kts | 114° |
| 2026-04-26 14:32 | 40.62404 | 47.80739 | 35073 ft | 502 kts | 114° |
| 2026-04-26 14:32 | 40.59951 | 47.89342 | 35072 ft | 502 kts | 114° |
| 2026-04-26 14:33 | 40.58274 | 47.98275 | 35067 ft | 506 kts | 98° |
| 2026-04-26 14:33 | 40.57710 | 48.07508 | 35066 ft | 506 kts | 95° |
| 2026-04-26 14:34 | 40.57322 | 48.16707 | 35068 ft | 508 kts | 95° |
| 2026-04-26 14:34 | 40.56932 | 48.25981 | 35066 ft | 508 kts | 95° |
| 2026-04-26 14:35 | 40.56510 | 48.35264 | 35071 ft | 508 kts | 96° |
| 2026-04-26 14:35 | 40.56071 | 48.44528 | 35065 ft | 507 kts | 96° |
| 2026-04-26 14:36 | 40.55622 | 48.53770 | 35070 ft | 506 kts | 96° |
| 2026-04-26 14:36 | 40.55168 | 48.63012 | 35067 ft | 508 kts | 96° |
| 2026-04-26 14:37 | 40.54703 | 48.72310 | 35062 ft | 510 kts | 96° |
| 2026-04-26 14:37 | 40.54231 | 48.81605 | 35057 ft | 510 kts | 96° |
| 2026-04-26 14:38 | 40.53751 | 48.90893 | 35057 ft | 508 kts | 96° |
| 2026-04-26 14:38 | 40.53266 | 49.00151 | 35047 ft | 507 kts | 96° |
| 2026-04-26 14:39 | 40.52775 | 49.09387 | 35044 ft | 506 kts | 96° |
| 2026-04-26 14:39 | 40.52281 | 49.18538 | 35035 ft | 505 kts | 96° |
| 2026-04-26 14:40 | 40.51778 | 49.27735 | 35022 ft | 504 kts | 96° |
| 2026-04-26 14:40 | 40.51266 | 49.36909 | 35039 ft | 502 kts | 96° |
| 2026-04-26 14:41 | 40.50755 | 49.46054 | 35041 ft | 501 kts | 96° |
| 2026-04-26 14:41 | 40.50232 | 49.55196 | 35049 ft | 502 kts | 97° |
| 2026-04-26 14:42 | 40.49702 | 49.64341 | 35041 ft | 502 kts | 97° |
| 2026-04-26 14:42 | 40.49164 | 49.73494 | 35047 ft | 502 kts | 97° |
| 2026-04-26 14:43 | 40.48618 | 49.82668 | 35051 ft | 505 kts | 97° |
| 2026-04-26 14:43 | 40.48067 | 49.91805 | 35042 ft | 505 kts | 97° |
| 2026-04-26 14:44 | 40.47502 | 50.01061 | 35050 ft | 505 kts | 98° |
| 2026-04-26 14:44 | 40.46581 | 50.10124 | 35054 ft | 504 kts | 103° |
| 2026-04-26 14:45 | 40.45396 | 50.19213 | 35054 ft | 505 kts | 104° |
| 2026-04-26 14:45 | 40.44164 | 50.28301 | 35058 ft | 506 kts | 104° |
| 2026-04-26 14:46 | 40.42927 | 50.37403 | 35070 ft | 506 kts | 104° |
| 2026-04-26 14:46 | 40.41689 | 50.46497 | 35082 ft | 506 kts | 104° |
| 2026-04-26 14:47 | 40.40449 | 50.55577 | 35092 ft | 505 kts | 104° |
| 2026-04-26 14:47 | 40.39205 | 50.64636 | 35094 ft | 503 kts | 104° |
| 2026-04-26 14:48 | 40.37964 | 50.73609 | 35099 ft | 503 kts | 104° |
| 2026-04-26 14:48 | 40.36707 | 50.82643 | 35099 ft | 503 kts | 104° |
| 2026-04-26 14:49 | 40.35443 | 50.91673 | 35094 ft | 503 kts | 104° |
| 2026-04-26 14:49 | 40.34173 | 51.00689 | 35107 ft | 503 kts | 104° |
| 2026-04-26 14:50 | 40.32897 | 51.09700 | 35108 ft | 503 kts | 104° |
| 2026-04-26 14:50 | 40.31614 | 51.18710 | 35108 ft | 503 kts | 104° |
| 2026-04-26 14:51 | 40.30324 | 51.27713 | 35111 ft | 503 kts | 104° |
| 2026-04-26 14:51 | 40.29027 | 51.36715 | 35111 ft | 503 kts | 105° |
| 2026-04-26 14:52 | 40.27732 | 51.45651 | 35111 ft | 503 kts | 105° |
| 2026-04-26 14:52 | 40.26423 | 51.54655 | 35111 ft | 503 kts | 105° |
| 2026-04-26 14:53 | 40.25107 | 51.63642 | 35114 ft | 503 kts | 105° |
| 2026-04-26 14:53 | 40.23780 | 51.72631 | 35114 ft | 503 kts | 105° |
| 2026-04-26 14:54 | 40.22445 | 51.81628 | 35110 ft | 503 kts | 105° |
| 2026-04-26 14:54 | 40.21106 | 51.90615 | 35110 ft | 503 kts | 105° |
| 2026-04-26 14:55 | 40.19760 | 51.99600 | 35114 ft | 503 kts | 105° |
| 2026-04-26 14:55 | 40.18415 | 52.08526 | 35104 ft | 503 kts | 105° |
| 2026-04-26 14:56 | 40.17056 | 52.17501 | 35101 ft | 503 kts | 105° |
| 2026-04-26 14:56 | 40.15690 | 52.26469 | 35106 ft | 503 kts | 105° |
| 2026-04-26 14:57 | 40.14315 | 52.35442 | 35110 ft | 503 kts | 105° |
| 2026-04-26 14:57 | 40.12935 | 52.44403 | 35108 ft | 503 kts | 105° |
| 2026-04-26 14:58 | 40.11784 | 52.51840 | 35111 ft | 502 kts | 105° |
| 2026-04-26 14:58 | 40.10392 | 52.60790 | 35110 ft | 502 kts | 105° |
| 2026-04-26 14:59 | 40.08993 | 52.69742 | 35113 ft | 502 kts | 105° |
| 2026-04-26 14:59 | 40.07587 | 52.78684 | 35102 ft | 503 kts | 105° |
| 2026-04-26 15:00 | 40.06176 | 52.87613 | 35101 ft | 503 kts | 105° |
| 2026-04-26 15:00 | 40.04771 | 52.96515 | 35091 ft | 504 kts | 103° |
| 2026-04-26 15:01 | 40.04509 | 53.05696 | 35107 ft | 509 kts | 87° |
| 2026-04-26 15:01 | 40.05252 | 53.14898 | 35106 ft | 510 kts | 85° |
| 2026-04-26 15:02 | 40.06154 | 53.24099 | 35107 ft | 510 kts | 84° |
| 2026-04-26 15:02 | 40.07047 | 53.33284 | 35099 ft | 510 kts | 84° |
| 2026-04-26 15:03 | 40.07907 | 53.42495 | 35105 ft | 511 kts | 85° |
| 2026-04-26 15:03 | 40.08747 | 53.51694 | 35091 ft | 511 kts | 85° |
| 2026-04-26 15:04 | 40.09574 | 53.60848 | 35099 ft | 511 kts | 85° |
| 2026-04-26 15:04 | 40.10401 | 53.70074 | 35100 ft | 511 kts | 85° |
| 2026-04-26 15:05 | 40.11221 | 53.79306 | 35097 ft | 511 kts | 85° |
| 2026-04-26 15:05 | 40.12034 | 53.88530 | 35101 ft | 511 kts | 85° |
| 2026-04-26 15:06 | 40.12838 | 53.97752 | 35095 ft | 510 kts | 85° |
| 2026-04-26 15:06 | 40.13636 | 54.06978 | 35096 ft | 511 kts | 85° |
| 2026-04-26 15:07 | 40.14814 | 54.20769 | 35099 ft | 511 kts | 85° |
| 2026-04-26 15:07 | 40.15593 | 54.30003 | 35103 ft | 511 kts | 85° |
| 2026-04-26 15:08 | 40.16367 | 54.39254 | 35107 ft | 512 kts | 85° |
| 2026-04-26 15:08 | 40.17132 | 54.48503 | 35106 ft | 511 kts | 85° |
| 2026-04-26 15:09 | 40.17891 | 54.57760 | 35115 ft | 512 kts | 85° |
| 2026-04-26 15:09 | 40.18642 | 54.67018 | 35113 ft | 512 kts | 85° |
| 2026-04-26 15:10 | 40.19261 | 54.74720 | 35115 ft | 512 kts | 85° |
| 2026-04-26 15:10 | 40.20118 | 54.85479 | 35118 ft | 512 kts | 85° |
| 2026-04-26 15:11 | 40.20851 | 54.94793 | 35123 ft | 512 kts | 86° |
| 2026-04-26 15:11 | 40.21567 | 55.03985 | 35123 ft | 511 kts | 86° |
| 2026-04-26 15:12 | 40.22281 | 55.13239 | 35128 ft | 511 kts | 86° |
| 2026-04-26 15:12 | 40.22987 | 55.22506 | 35125 ft | 511 kts | 86° |
| 2026-04-26 15:13 | 40.23687 | 55.31773 | 35125 ft | 511 kts | 86° |
| 2026-04-26 15:13 | 40.24378 | 55.41034 | 35130 ft | 511 kts | 86° |
| 2026-04-26 15:14 | 40.25062 | 55.50294 | 35121 ft | 511 kts | 86° |
| 2026-04-26 15:14 | 40.25740 | 55.59575 | 35131 ft | 511 kts | 86° |
| 2026-04-26 15:15 | 40.26410 | 55.68852 | 35138 ft | 511 kts | 86° |
| 2026-04-26 15:15 | 40.27779 | 55.77907 | 35145 ft | 512 kts | 72° |
| 2026-04-26 15:16 | 40.30129 | 55.86730 | 35141 ft | 513 kts | 70° |
| 2026-04-26 15:16 | 40.32625 | 55.95492 | 35146 ft | 514 kts | 70° |
| 2026-04-26 15:17 | 40.34708 | 56.02792 | 35143 ft | 514 kts | 70° |
| 2026-04-26 15:17 | 40.37609 | 56.13080 | 35143 ft | 514 kts | 70° |
| 2026-04-26 15:18 | 40.40072 | 56.21897 | 35154 ft | 514 kts | 70° |
| 2026-04-26 15:18 | 40.42527 | 56.30723 | 35151 ft | 516 kts | 70° |
| 2026-04-26 15:19 | 40.44965 | 56.39515 | 35155 ft | 516 kts | 70° |
| 2026-04-26 15:19 | 40.47413 | 56.48372 | 35158 ft | 516 kts | 70° |
| 2026-04-26 15:20 | 40.49853 | 56.57232 | 35158 ft | 516 kts | 70° |
| 2026-04-26 15:20 | 40.52291 | 56.66113 | 35154 ft | 517 kts | 70° |
| 2026-04-26 15:21 | 40.54724 | 56.75008 | 35162 ft | 517 kts | 70° |
| 2026-04-26 15:21 | 40.57154 | 56.83928 | 35160 ft | 518 kts | 70° |
| 2026-04-26 15:22 | 40.59583 | 56.92876 | 35165 ft | 519 kts | 71° |
| 2026-04-26 15:22 | 40.61992 | 57.01780 | 35165 ft | 519 kts | 71° |
| 2026-04-26 15:23 | 40.64411 | 57.10752 | 35167 ft | 519 kts | 71° |
| 2026-04-26 15:23 | 40.66822 | 57.19728 | 35168 ft | 520 kts | 71° |
| 2026-04-26 15:24 | 40.69218 | 57.28716 | 35168 ft | 520 kts | 71° |
| 2026-04-26 15:24 | 40.71610 | 57.37721 | 35180 ft | 520 kts | 70° |
| 2026-04-26 15:25 | 40.73597 | 57.45218 | 35172 ft | 522 kts | 71° |
| 2026-04-26 15:25 | 40.76374 | 57.55732 | 35177 ft | 522 kts | 71° |
| 2026-04-26 15:26 | 40.78756 | 57.64778 | 35175 ft | 522 kts | 70° |
| 2026-04-26 15:26 | 40.81278 | 57.73772 | 35180 ft | 522 kts | 69° |
| 2026-04-26 15:27 | 40.83877 | 57.82728 | 35181 ft | 522 kts | 69° |
| 2026-04-26 15:27 | 40.86452 | 57.91696 | 35184 ft | 522 kts | 69° |
| 2026-04-26 15:28 | 40.89001 | 58.00691 | 35184 ft | 523 kts | 69° |
| 2026-04-26 15:28 | 40.91541 | 58.09709 | 35189 ft | 524 kts | 69° |
| 2026-04-26 15:29 | 40.94074 | 58.18735 | 35192 ft | 524 kts | 69° |
| 2026-04-26 15:30 | 40.99106 | 58.36759 | 35191 ft | 524 kts | 69° |
| 2026-04-26 15:30 | 41.01616 | 58.45792 | 35190 ft | 524 kts | 69° |
| 2026-04-26 15:31 | 41.05380 | 58.59406 | 35192 ft | 524 kts | 69° |
| 2026-04-26 15:32 | 41.08701 | 58.71480 | 35197 ft | 523 kts | 69° |
| 2026-04-26 15:32 | 41.11606 | 58.82083 | 35184 ft | 523 kts | 69° |
| 2026-04-26 15:33 | 41.14082 | 58.91157 | 35196 ft | 523 kts | 69° |
| 2026-04-26 15:33 | 41.16552 | 59.00244 | 35194 ft | 523 kts | 69° |
| 2026-04-26 15:34 | 41.18995 | 59.09267 | 35199 ft | 523 kts | 70° |
| 2026-04-26 15:34 | 41.21451 | 59.18369 | 35198 ft | 524 kts | 69° |
| 2026-04-26 15:35 | 41.23906 | 59.27498 | 35195 ft | 524 kts | 70° |
| 2026-04-26 15:35 | 41.26350 | 59.36624 | 35202 ft | 524 kts | 70° |
| 2026-04-26 15:36 | 41.28791 | 59.45770 | 35200 ft | 525 kts | 70° |
| 2026-04-26 15:36 | 41.31226 | 59.54927 | 35201 ft | 525 kts | 70° |
| 2026-04-26 15:37 | 41.33652 | 59.64086 | 35199 ft | 519 kts | 70° |
| 2026-04-26 15:37 | 41.34815 | 59.68500 | 35196 ft | 507 kts | 70° |
| 2026-04-26 15:37 | 41.35927 | 59.72894 | 35194 ft | 494 kts | 71° |
| 2026-04-26 15:38 | 41.36970 | 59.77192 | 35195 ft | 481 kts | 72° |
| 2026-04-26 15:38 | 41.37970 | 59.81376 | 35193 ft | 469 kts | 72° |
| 2026-04-26 15:38 | 41.38944 | 59.85468 | 35196 ft | 458 kts | 72° |
| 2026-04-26 15:38 | 41.39908 | 59.89500 | 35199 ft | 456 kts | 72° |
| 2026-04-26 15:39 | 41.41849 | 59.97566 | 35202 ft | 456 kts | 71° |
| 2026-04-26 15:39 | 41.43135 | 60.02898 | 35204 ft | 457 kts | 71° |
| 2026-04-26 15:40 | 41.45735 | 60.13693 | 35205 ft | 457 kts | 71° |
| 2026-04-26 15:40 | 41.47668 | 60.21767 | 35210 ft | 457 kts | 72° |
| 2026-04-26 15:41 | 41.49577 | 60.29849 | 35220 ft | 457 kts | 72° |
| 2026-04-26 15:41 | 41.51465 | 60.37899 | 35226 ft | 458 kts | 72° |
| 2026-04-26 15:42 | 41.53364 | 60.46019 | 35232 ft | 458 kts | 72° |
| 2026-04-26 15:42 | 41.55260 | 60.54142 | 35241 ft | 458 kts | 72° |
| 2026-04-26 15:43 | 41.57149 | 60.62267 | 35235 ft | 458 kts | 72° |
| 2026-04-26 15:44 | 41.60129 | 60.74343 | 35238 ft | 457 kts | 69° |
| 2026-04-26 15:44 | 41.63362 | 60.86346 | 35230 ft | 457 kts | 69° |
| 2026-04-26 15:45 | 41.66531 | 60.98385 | 35219 ft | 457 kts | 70° |
| 2026-04-26 15:46 | 41.69664 | 61.10449 | 35218 ft | 457 kts | 70° |
| 2026-04-26 15:46 | 41.71044 | 61.15782 | 35217 ft | 457 kts | 70° |
| 2026-04-26 15:47 | 41.74844 | 61.30519 | 35222 ft | 457 kts | 70° |
| 2026-04-26 15:48 | 41.76578 | 61.37273 | 35222 ft | 457 kts | 70° |
| 2026-04-26 15:48 | 41.78631 | 61.45291 | 35223 ft | 457 kts | 70° |
| 2026-04-26 15:49 | 41.80692 | 61.53370 | 35219 ft | 457 kts | 70° |
| 2026-04-26 15:49 | 41.81714 | 61.57386 | 35404 ft | 454 kts | 70° |
| 2026-04-26 15:49 | 41.82732 | 61.61395 | 35486 ft | 455 kts | 70° |
| 2026-04-26 15:50 | 41.84777 | 61.69462 | 35520 ft | 456 kts | 70° |
| 2026-04-26 15:50 | 41.85789 | 61.73469 | 35262 ft | 452 kts | 70° |
| 2026-04-26 15:50 | 41.86802 | 61.77477 | 35219 ft | 455 kts | 70° |
| 2026-04-26 15:51 | 41.88834 | 61.85562 | 35219 ft | 458 kts | 70° |
| 2026-04-26 15:51 | 41.90843 | 61.93616 | 35217 ft | 458 kts | 70° |
| 2026-04-26 15:52 | 41.92875 | 62.01780 | 35217 ft | 458 kts | 70° |
| 2026-04-26 15:52 | 41.94879 | 62.09846 | 35216 ft | 458 kts | 70° |
| 2026-04-26 15:53 | 41.96895 | 62.17964 | 35213 ft | 458 kts | 70° |
| 2026-04-26 15:53 | 41.98903 | 62.26093 | 35212 ft | 458 kts | 70° |
| 2026-04-26 15:54 | 42.00904 | 62.34222 | 35210 ft | 458 kts | 70° |
| 2026-04-26 15:54 | 42.02901 | 62.42357 | 35210 ft | 458 kts | 70° |
| 2026-04-26 15:55 | 42.04893 | 62.50502 | 35215 ft | 459 kts | 70° |
| 2026-04-26 15:55 | 42.06881 | 62.58657 | 35214 ft | 459 kts | 70° |
| 2026-04-26 15:56 | 42.08867 | 62.66822 | 35211 ft | 459 kts | 70° |
| 2026-04-26 15:56 | 42.10844 | 62.74990 | 35209 ft | 459 kts | 71° |
| 2026-04-26 15:57 | 42.12815 | 62.83160 | 35211 ft | 458 kts | 71° |
| 2026-04-26 15:57 | 42.14762 | 62.91268 | 35212 ft | 458 kts | 71° |
| 2026-04-26 15:58 | 42.16715 | 62.99430 | 35211 ft | 458 kts | 71° |
| 2026-04-26 15:58 | 42.18669 | 63.07604 | 35213 ft | 458 kts | 71° |
| 2026-04-26 15:59 | 42.20616 | 63.15775 | 35208 ft | 457 kts | 71° |
| 2026-04-26 15:59 | 42.22560 | 63.23956 | 35208 ft | 457 kts | 71° |
| 2026-04-26 16:00 | 42.24493 | 63.32124 | 35210 ft | 457 kts | 71° |
| 2026-04-26 16:00 | 42.26423 | 63.40311 | 35214 ft | 457 kts | 72° |
| 2026-04-26 16:01 | 42.28347 | 63.48501 | 35214 ft | 457 kts | 72° |
| 2026-04-26 16:01 | 42.30266 | 63.56700 | 35211 ft | 457 kts | 72° |
| 2026-04-26 16:02 | 42.32164 | 63.64837 | 35211 ft | 457 kts | 72° |
| 2026-04-26 16:02 | 42.34072 | 63.73047 | 35211 ft | 457 kts | 72° |
| 2026-04-26 16:03 | 42.35969 | 63.81239 | 35213 ft | 457 kts | 72° |
| 2026-04-26 16:03 | 42.37863 | 63.89451 | 35215 ft | 457 kts | 72° |
| 2026-04-26 16:04 | 42.39749 | 63.97656 | 35215 ft | 457 kts | 72° |
| 2026-04-26 16:04 | 42.41626 | 64.05871 | 35217 ft | 457 kts | 73° |
| 2026-04-26 16:05 | 42.43462 | 64.14056 | 35214 ft | 457 kts | 73° |
| 2026-04-26 16:05 | 42.45301 | 64.22304 | 35213 ft | 457 kts | 73° |
| 2026-04-26 16:06 | 42.47149 | 64.30545 | 35214 ft | 457 kts | 73° |
| 2026-04-26 16:06 | 42.49004 | 64.38782 | 35213 ft | 457 kts | 73° |
| 2026-04-26 16:07 | 42.50855 | 64.47036 | 35213 ft | 457 kts | 73° |
| 2026-04-26 16:07 | 42.52699 | 64.55301 | 35214 ft | 457 kts | 73° |
| 2026-04-26 16:08 | 42.54524 | 64.63511 | 35222 ft | 457 kts | 73° |
| 2026-04-26 16:08 | 42.56355 | 64.71785 | 35221 ft | 457 kts | 73° |
| 2026-04-26 16:09 | 42.58179 | 64.80057 | 35202 ft | 457 kts | 73° |
| 2026-04-26 16:09 | 42.59996 | 64.88331 | 35218 ft | 457 kts | 74° |
| 2026-04-26 16:10 | 42.61797 | 64.96563 | 35221 ft | 457 kts | 74° |
| 2026-04-26 16:10 | 42.63604 | 65.04854 | 35215 ft | 458 kts | 74° |
| 2026-04-26 16:11 | 42.65406 | 65.13156 | 35220 ft | 458 kts | 74° |
| 2026-04-26 16:11 | 42.67203 | 65.21462 | 35217 ft | 458 kts | 74° |
| 2026-04-26 16:12 | 42.68995 | 65.29783 | 35215 ft | 458 kts | 74° |
| 2026-04-26 16:12 | 42.71665 | 65.42237 | 35212 ft | 457 kts | 74° |
| 2026-04-26 16:13 | 42.73438 | 65.50551 | 35213 ft | 457 kts | 74° |
| 2026-04-26 16:13 | 42.75190 | 65.58797 | 35213 ft | 457 kts | 74° |
| 2026-04-26 16:14 | 42.76950 | 65.67117 | 35211 ft | 457 kts | 75° |
| 2026-04-26 16:15 | 42.79581 | 65.79604 | 35202 ft | 457 kts | 75° |
| 2026-04-26 16:15 | 42.81326 | 65.87934 | 35199 ft | 457 kts | 75° |
| 2026-04-26 16:16 | 42.83933 | 66.00448 | 35216 ft | 457 kts | 75° |
| 2026-04-26 16:16 | 42.85663 | 66.08792 | 35196 ft | 457 kts | 75° |
| 2026-04-26 16:17 | 42.87383 | 66.17145 | 35201 ft | 457 kts | 75° |
| 2026-04-26 16:17 | 42.89072 | 66.25455 | 35204 ft | 457 kts | 75° |
| 2026-04-26 16:18 | 42.91608 | 66.37995 | 35190 ft | 457 kts | 75° |
| 2026-04-26 16:19 | 42.94135 | 66.50536 | 35206 ft | 457 kts | 75° |
| 2026-04-26 16:20 | 42.96653 | 66.63088 | 35191 ft | 457 kts | 75° |
| 2026-04-26 16:20 | 42.99196 | 66.75622 | 35199 ft | 456 kts | 75° |
| 2026-04-26 16:21 | 43.00881 | 66.83977 | 35186 ft | 456 kts | 75° |
| 2026-04-26 16:21 | 43.02536 | 66.92362 | 35208 ft | 459 kts | 75° |
| 2026-04-26 16:22 | 43.04204 | 67.00864 | 35194 ft | 467 kts | 75° |
| 2026-04-26 16:22 | 43.05898 | 67.09513 | 35195 ft | 475 kts | 75° |
| 2026-04-26 16:23 | 43.07616 | 67.18305 | 35205 ft | 482 kts | 75° |
| 2026-04-26 16:23 | 43.09356 | 67.27250 | 35204 ft | 490 kts | 75° |
| 2026-04-26 16:24 | 43.11117 | 67.36346 | 35195 ft | 498 kts | 76° |
| 2026-04-26 16:24 | 43.12898 | 67.45591 | 35193 ft | 506 kts | 76° |
| 2026-04-26 16:25 | 43.14690 | 67.54915 | 35189 ft | 514 kts | 76° |
| 2026-04-26 16:25 | 43.16499 | 67.64379 | 35191 ft | 512 kts | 76° |
| 2026-04-26 16:26 | 43.18001 | 67.72281 | 35182 ft | 511 kts | 76° |
| 2026-04-26 16:26 | 43.20080 | 67.83247 | 35183 ft | 511 kts | 76° |
| 2026-04-26 16:27 | 43.21859 | 67.92700 | 35176 ft | 511 kts | 76° |
| 2026-04-26 16:27 | 43.23624 | 68.02143 | 35179 ft | 511 kts | 76° |
| 2026-04-26 16:28 | 43.25381 | 68.11587 | 35169 ft | 511 kts | 76° |
| 2026-04-26 16:28 | 43.27131 | 68.21033 | 35170 ft | 511 kts | 76° |
| 2026-04-26 16:29 | 43.28874 | 68.30482 | 35172 ft | 511 kts | 77° |
| 2026-04-26 16:29 | 43.30578 | 68.39949 | 35172 ft | 510 kts | 79° |
| 2026-04-26 16:30 | 43.31766 | 68.49490 | 35159 ft | 509 kts | 83° |
| 2026-04-26 16:30 | 43.33258 | 68.58967 | 35183 ft | 509 kts | 69° |
| 2026-04-26 16:31 | 43.36168 | 68.67798 | 35185 ft | 506 kts | 63° |
| 2026-04-26 16:31 | 43.39367 | 68.76426 | 35185 ft | 507 kts | 62° |
| 2026-04-26 16:32 | 43.42066 | 68.83587 | 35185 ft | 507 kts | 62° |
| 2026-04-26 16:32 | 43.45828 | 68.93683 | 35182 ft | 506 kts | 63° |
| 2026-04-26 16:33 | 43.49003 | 69.02298 | 35196 ft | 503 kts | 63° |
| 2026-04-26 16:33 | 43.51622 | 69.09438 | 35202 ft | 503 kts | 63° |
| 2026-04-26 16:34 | 43.55280 | 69.19441 | 35200 ft | 503 kts | 63° |
| 2026-04-26 16:34 | 43.58423 | 69.28060 | 35207 ft | 503 kts | 63° |
| 2026-04-26 16:35 | 43.61055 | 69.35296 | 35206 ft | 504 kts | 63° |
| 2026-04-26 16:35 | 43.64179 | 69.43955 | 35205 ft | 504 kts | 65° |
| 2026-04-26 16:36 | 43.66979 | 69.52821 | 35214 ft | 504 kts | 68° |
| 2026-04-26 16:36 | 43.69630 | 69.61734 | 35206 ft | 505 kts | 68° |
| 2026-04-26 16:37 | 43.72339 | 69.70707 | 35204 ft | 505 kts | 67° |
| 2026-04-26 16:37 | 43.75079 | 69.79661 | 35204 ft | 505 kts | 67° |
| 2026-04-26 16:38 | 43.77827 | 69.88624 | 35209 ft | 507 kts | 67° |
| 2026-04-26 16:38 | 43.80575 | 69.97618 | 35196 ft | 507 kts | 67° |
| 2026-04-26 16:39 | 43.83314 | 70.06624 | 35197 ft | 507 kts | 67° |
| 2026-04-26 16:39 | 43.86043 | 70.15629 | 35205 ft | 507 kts | 67° |
| 2026-04-26 16:40 | 43.88771 | 70.24665 | 35184 ft | 509 kts | 67° |
| 2026-04-26 16:40 | 43.91497 | 70.33726 | 35203 ft | 509 kts | 67° |
| 2026-04-26 16:41 | 43.94199 | 70.42737 | 35186 ft | 509 kts | 67° |
| 2026-04-26 16:41 | 43.96909 | 70.51810 | 35183 ft | 510 kts | 67° |
| 2026-04-26 16:42 | 43.99622 | 70.60921 | 35198 ft | 510 kts | 67° |
| 2026-04-26 16:42 | 44.02324 | 70.70031 | 35182 ft | 510 kts | 67° |
| 2026-04-26 16:43 | 44.05019 | 70.79148 | 35192 ft | 510 kts | 68° |
| 2026-04-26 16:43 | 44.07707 | 70.88274 | 35186 ft | 510 kts | 68° |
| 2026-04-26 16:44 | 44.10387 | 70.97409 | 35178 ft | 510 kts | 68° |
| 2026-04-26 16:44 | 44.13059 | 71.06547 | 35187 ft | 510 kts | 68° |
| 2026-04-26 16:45 | 44.15726 | 71.15699 | 35176 ft | 509 kts | 68° |
| 2026-04-26 16:45 | 44.18378 | 71.24832 | 35178 ft | 507 kts | 68° |
| 2026-04-26 16:46 | 44.21015 | 71.33952 | 35170 ft | 507 kts | 68° |
| 2026-04-26 16:46 | 44.23647 | 71.43077 | 35164 ft | 507 kts | 69° |
| 2026-04-26 16:47 | 44.26270 | 71.52209 | 35166 ft | 506 kts | 69° |
| 2026-04-26 16:47 | 44.28864 | 71.61286 | 35163 ft | 507 kts | 69° |
| 2026-04-26 16:48 | 44.31473 | 71.70445 | 35151 ft | 508 kts | 69° |
| 2026-04-26 16:48 | 44.34077 | 71.79618 | 35140 ft | 507 kts | 69° |
| 2026-04-26 16:49 | 44.36672 | 71.88790 | 35146 ft | 507 kts | 69° |
| 2026-04-26 16:49 | 44.39259 | 71.97967 | 35140 ft | 507 kts | 69° |
| 2026-04-26 16:50 | 44.41838 | 72.07153 | 35134 ft | 507 kts | 69° |
| 2026-04-26 16:50 | 44.44406 | 72.16336 | 35133 ft | 507 kts | 69° |
| 2026-04-26 16:51 | 44.46968 | 72.25528 | 35127 ft | 507 kts | 69° |
| 2026-04-26 16:51 | 44.49506 | 72.34670 | 35121 ft | 507 kts | 69° |
| 2026-04-26 16:52 | 44.51643 | 72.42391 | 35121 ft | 507 kts | 69° |
| 2026-04-26 16:52 | 44.54596 | 72.53108 | 35116 ft | 507 kts | 69° |
| 2026-04-26 16:53 | 44.57132 | 72.62345 | 35110 ft | 507 kts | 69° |
| 2026-04-26 16:53 | 44.59659 | 72.71585 | 35107 ft | 507 kts | 70° |
| 2026-04-26 16:54 | 44.62177 | 72.80829 | 35095 ft | 507 kts | 70° |
| 2026-04-26 16:54 | 44.64687 | 72.90076 | 35100 ft | 506 kts | 70° |
| 2026-04-26 16:55 | 44.67167 | 72.99253 | 35091 ft | 506 kts | 70° |
| 2026-04-26 16:55 | 44.69656 | 73.08493 | 35091 ft | 506 kts | 70° |
| 2026-04-26 16:56 | 44.73378 | 73.22380 | 35087 ft | 506 kts | 70° |
| 2026-04-26 16:57 | 44.75850 | 73.31654 | 35081 ft | 506 kts | 70° |
| 2026-04-26 16:57 | 44.79548 | 73.45608 | 35075 ft | 506 kts | 70° |
| 2026-04-26 16:58 | 44.81586 | 73.53330 | 35069 ft | 506 kts | 70° |
| 2026-04-26 16:59 | 44.85668 | 73.68874 | 35063 ft | 506 kts | 70° |
| 2026-04-26 17:00 | 44.90528 | 73.87509 | 35058 ft | 505 kts | 71° |
| 2026-04-26 17:00 | 44.94125 | 74.01398 | 35055 ft | 504 kts | 71° |
| 2026-04-26 17:01 | 44.96523 | 74.10707 | 35050 ft | 504 kts | 71° |
| 2026-04-26 17:01 | 44.98914 | 74.20028 | 35050 ft | 504 kts | 71° |
| 2026-04-26 17:02 | 45.01662 | 74.29152 | 35042 ft | 505 kts | 66° |
| 2026-04-26 17:02 | 45.04605 | 74.38175 | 35043 ft | 505 kts | 65° |
| 2026-04-26 17:03 | 45.07569 | 74.47176 | 35045 ft | 505 kts | 66° |
| 2026-04-26 17:03 | 45.10524 | 74.56189 | 35035 ft | 504 kts | 66° |
| 2026-04-26 17:04 | 45.13461 | 74.65204 | 35041 ft | 504 kts | 66° |
| 2026-04-26 17:04 | 45.16379 | 74.74202 | 35035 ft | 507 kts | 66° |
| 2026-04-26 17:05 | 45.19320 | 74.83300 | 35028 ft | 508 kts | 66° |
| 2026-04-26 17:05 | 45.22250 | 74.92395 | 35023 ft | 507 kts | 66° |
| 2026-04-26 17:06 | 45.25171 | 75.01496 | 35023 ft | 507 kts | 66° |
| 2026-04-26 17:06 | 45.28084 | 75.10603 | 35021 ft | 507 kts | 66° |
| 2026-04-26 17:07 | 45.31182 | 75.19584 | 35013 ft | 507 kts | 60° |
| 2026-04-26 17:07 | 45.34682 | 75.28266 | 35014 ft | 506 kts | 59° |
| 2026-04-26 17:08 | 45.38243 | 75.36900 | 35011 ft | 506 kts | 59° |
| 2026-04-26 17:08 | 45.41801 | 75.45533 | 35002 ft | 506 kts | 59° |
| 2026-04-26 17:09 | 45.44749 | 75.52725 | 35013 ft | 505 kts | 59° |
| 2026-04-26 17:09 | 45.48877 | 75.62846 | 35001 ft | 506 kts | 59° |
| 2026-04-26 17:10 | 45.52405 | 75.71527 | 34996 ft | 506 kts | 60° |
| 2026-04-26 17:10 | 45.55926 | 75.80219 | 34996 ft | 506 kts | 60° |
| 2026-04-26 17:11 | 45.59443 | 75.88927 | 34990 ft | 505 kts | 60° |
| 2026-04-26 17:11 | 45.62924 | 75.97572 | 34990 ft | 505 kts | 60° |
| 2026-04-26 17:12 | 45.68160 | 76.10626 | 34988 ft | 505 kts | 60° |
| 2026-04-26 17:13 | 45.73379 | 76.23702 | 34986 ft | 503 kts | 60° |
| 2026-04-26 17:14 | 45.78577 | 76.36785 | 34982 ft | 505 kts | 60° |
| 2026-04-26 17:14 | 45.83768 | 76.49914 | 34982 ft | 505 kts | 60° |
| 2026-04-26 17:15 | 45.88921 | 76.63008 | 34978 ft | 503 kts | 60° |
| 2026-04-26 17:16 | 45.92349 | 76.71754 | 34980 ft | 503 kts | 60° |
| 2026-04-26 17:16 | 45.95773 | 76.80516 | 34981 ft | 503 kts | 60° |
| 2026-04-26 17:17 | 45.99190 | 76.89291 | 34975 ft | 502 kts | 60° |
| 2026-04-26 17:17 | 46.02598 | 76.98069 | 34972 ft | 502 kts | 60° |
| 2026-04-26 17:18 | 46.06000 | 77.06858 | 34977 ft | 502 kts | 60° |
| 2026-04-26 17:18 | 46.09395 | 77.15660 | 34975 ft | 503 kts | 60° |
| 2026-04-26 17:19 | 46.14478 | 77.28891 | 34969 ft | 502 kts | 60° |
| 2026-04-26 17:19 | 46.17828 | 77.37645 | 34971 ft | 502 kts | 60° |
| 2026-04-26 17:20 | 46.20086 | 77.43561 | 34971 ft | 502 kts | 60° |
| 2026-04-26 17:20 | 46.23999 | 77.53845 | 34967 ft | 502 kts | 60° |
| 2026-04-26 17:21 | 46.27528 | 77.62542 | 34967 ft | 501 kts | 52° |
| 2026-04-26 17:21 | 46.31963 | 77.70283 | 34983 ft | 500 kts | 47° |
| 2026-04-26 17:22 | 46.36589 | 77.77835 | 34962 ft | 502 kts | 46° |
| 2026-04-26 17:22 | 46.41242 | 77.85367 | 34964 ft | 502 kts | 46° |
| 2026-04-26 17:23 | 46.45887 | 77.92942 | 34964 ft | 502 kts | 46° |
| 2026-04-26 17:23 | 46.50510 | 78.00529 | 34958 ft | 502 kts | 46° |
| 2026-04-26 17:24 | 46.55128 | 78.08136 | 34960 ft | 502 kts | 46° |
| 2026-04-26 17:24 | 46.59714 | 78.15689 | 34964 ft | 502 kts | 46° |
| 2026-04-26 17:25 | 46.64334 | 78.23290 | 34960 ft | 500 kts | 46° |
| 2026-04-26 17:25 | 46.68928 | 78.30869 | 34967 ft | 499 kts | 46° |
| 2026-04-26 17:26 | 46.73514 | 78.38461 | 34966 ft | 499 kts | 47° |
| 2026-04-26 17:26 | 46.78099 | 78.46074 | 34968 ft | 499 kts | 47° |
| 2026-04-26 17:27 | 46.82677 | 78.53698 | 34970 ft | 500 kts | 47° |
| 2026-04-26 17:27 | 46.87255 | 78.61343 | 34974 ft | 499 kts | 47° |
| 2026-04-26 17:28 | 46.91826 | 78.68997 | 34981 ft | 499 kts | 47° |
| 2026-04-26 17:28 | 46.96386 | 78.76656 | 34978 ft | 499 kts | 47° |
| 2026-04-26 17:29 | 47.00178 | 78.83041 | 34979 ft | 499 kts | 47° |
| 2026-04-26 17:29 | 47.05492 | 78.92014 | 34980 ft | 497 kts | 47° |
| 2026-04-26 17:30 | 47.09996 | 78.99644 | 34981 ft | 498 kts | 47° |
| 2026-04-26 17:30 | 47.14482 | 79.07472 | 34989 ft | 499 kts | 53° |
| 2026-04-26 17:31 | 47.16266 | 79.11789 | 34987 ft | 501 kts | 64° |
| 2026-04-26 17:31 | 47.17525 | 79.16571 | 35036 ft | 504 kts | 76° |
| 2026-04-26 17:31 | 47.18144 | 79.21632 | 35089 ft | 504 kts | 88° |
| 2026-04-26 17:31 | 47.18120 | 79.26773 | 35186 ft | 504 kts | 95° |
| 2026-04-26 17:32 | 47.17837 | 79.31912 | 35306 ft | 504 kts | 97° |
| 2026-04-26 17:32 | 47.17462 | 79.37040 | 35460 ft | 504 kts | 98° |
| 2026-04-26 17:32 | 47.17050 | 79.42162 | 35616 ft | 504 kts | 99° |
| 2026-04-26 17:32 | 47.16631 | 79.47284 | 35761 ft | 504 kts | 99° |
| 2026-04-26 17:33 | 47.16217 | 79.52413 | 35904 ft | 505 kts | 98° |
| 2026-04-26 17:33 | 47.15817 | 79.57482 | 36035 ft | 505 kts | 98° |
| 2026-04-26 17:33 | 47.15420 | 79.62603 | 36177 ft | 505 kts | 98° |
| 2026-04-26 17:34 | 47.14630 | 79.72888 | 36340 ft | 508 kts | 98° |
| 2026-04-26 17:34 | 47.14233 | 79.78046 | 36472 ft | 509 kts | 98° |
| 2026-04-26 17:34 | 47.13834 | 79.83210 | 36603 ft | 508 kts | 97° |
| 2026-04-26 17:34 | 47.13434 | 79.88359 | 36803 ft | 507 kts | 97° |
| 2026-04-26 17:35 | 47.13038 | 79.93503 | 36958 ft | 506 kts | 97° |
| 2026-04-26 17:35 | 47.12645 | 79.98652 | 37070 ft | 507 kts | 97° |
| 2026-04-26 17:35 | 47.12251 | 80.03790 | 37178 ft | 507 kts | 97° |
| 2026-04-26 17:35 | 47.11854 | 80.08937 | 37295 ft | 507 kts | 97° |
| 2026-04-26 17:36 | 47.11456 | 80.14071 | 37602 ft | 503 kts | 97° |
| 2026-04-26 17:36 | 47.11058 | 80.19155 | 37785 ft | 502 kts | 97° |
| 2026-04-26 17:36 | 47.10657 | 80.24245 | 37880 ft | 502 kts | 98° |
| 2026-04-26 17:37 | 47.09851 | 80.34372 | 38081 ft | 503 kts | 98° |
| 2026-04-26 17:37 | 47.09442 | 80.39469 | 38188 ft | 503 kts | 98° |
| 2026-04-26 17:37 | 47.09030 | 80.44565 | 38284 ft | 503 kts | 98° |
| 2026-04-26 17:38 | 47.08201 | 80.54749 | 38525 ft | 503 kts | 98° |
| 2026-04-26 17:38 | 47.07783 | 80.59834 | 38641 ft | 503 kts | 98° |
| 2026-04-26 17:38 | 47.06940 | 80.70020 | 38819 ft | 502 kts | 98° |
| 2026-04-26 17:39 | 47.06089 | 80.80192 | 38976 ft | 502 kts | 98° |
| 2026-04-26 17:39 | 47.05227 | 80.90377 | 39043 ft | 504 kts | 98° |
| 2026-04-26 17:40 | 47.04502 | 80.98858 | 39056 ft | 505 kts | 98° |
| 2026-04-26 17:40 | 47.03479 | 81.10779 | 39051 ft | 503 kts | 98° |
| 2026-04-26 17:41 | 47.02594 | 81.20885 | 39056 ft | 502 kts | 98° |
| 2026-04-26 17:41 | 47.01696 | 81.31049 | 39061 ft | 502 kts | 98° |
| 2026-04-26 17:42 | 47.00789 | 81.41211 | 39058 ft | 502 kts | 98° |
| 2026-04-26 17:42 | 46.99875 | 81.51364 | 39063 ft | 502 kts | 98° |
| 2026-04-26 17:43 | 46.98952 | 81.61511 | 39055 ft | 503 kts | 98° |
| 2026-04-26 17:43 | 46.98025 | 81.71606 | 39056 ft | 503 kts | 98° |
| 2026-04-26 17:44 | 46.97084 | 81.81746 | 39053 ft | 503 kts | 98° |
| 2026-04-26 17:44 | 46.96134 | 81.91892 | 39052 ft | 503 kts | 98° |
| 2026-04-26 17:45 | 46.95169 | 82.02020 | 39059 ft | 503 kts | 98° |
| 2026-04-26 17:45 | 46.94191 | 82.12167 | 39050 ft | 503 kts | 98° |
| 2026-04-26 17:46 | 46.93207 | 82.22284 | 39066 ft | 503 kts | 98° |
| 2026-04-26 17:46 | 46.92213 | 82.32410 | 39066 ft | 502 kts | 98° |
| 2026-04-26 17:47 | 46.91380 | 82.40826 | 39068 ft | 502 kts | 98° |
| 2026-04-26 17:47 | 46.90204 | 82.52589 | 39076 ft | 502 kts | 98° |
| 2026-04-26 17:48 | 46.89183 | 82.62712 | 39066 ft | 503 kts | 98° |
| 2026-04-26 17:48 | 46.88155 | 82.72806 | 39075 ft | 501 kts | 98° |
| 2026-04-26 17:49 | 46.85924 | 82.89041 | 39073 ft | 499 kts | 113° |
| 2026-04-26 17:49 | 46.79036 | 83.06485 | 39085 ft | 497 kts | 124° |
| 2026-04-26 17:49 | 46.71651 | 83.23409 | 39079 ft | 495 kts | 123° |
| 2026-04-26 17:50 | 46.56046 | 83.56482 | 39084 ft | 494 kts | 128° |
| 2026-04-26 17:50 | 46.39799 | 83.88460 | 39076 ft | 495 kts | 127° |
| 2026-04-26 17:51 | 46.06905 | 84.52129 | 39115 ft | 494 kts | 127° |
| 2026-04-26 17:52 | 45.90130 | 84.83974 | 39097 ft | 496 kts | 127° |
| 2026-04-26 17:52 | 45.73443 | 85.15298 | 39066 ft | 498 kts | 127° |
| 2026-04-26 17:53 | 45.56643 | 85.46689 | 39058 ft | 496 kts | 127° |
| 2026-04-26 17:54 | 45.31376 | 85.93346 | 39069 ft | 495 kts | 127° |
| 2026-04-26 17:54 | 45.22922 | 86.08786 | 39170 ft | 495 kts | 127° |
| 2026-04-26 17:54 | 45.14432 | 86.24209 | 39175 ft | 497 kts | 127° |
| 2026-04-26 17:55 | 44.97348 | 86.54989 | 39183 ft | 497 kts | 127° |
| 2026-04-26 17:55 | 44.80126 | 86.85648 | 39197 ft | 499 kts | 128° |
| 2026-04-26 17:56 | 44.62570 | 87.15981 | 39201 ft | 500 kts | 128° |
| 2026-04-26 17:57 | 44.28675 | 87.77233 | 39211 ft | 499 kts | 126° |
| 2026-04-26 17:57 | 44.20675 | 87.93024 | 39244 ft | 498 kts | 114° |
| 2026-04-26 17:57 | 44.19235 | 88.11434 | 39249 ft | 480 kts | 76° |